sensor_id;sensor_type;location;lat;lon;timestamp;pressure;altitude;pressure_sealevel;temperature;humidity
50093;BME280;35974;47.752;10.290;2022-08-04T00:02:12;93909.97;;;16.31;75.03
50093;BME280;35974;47.752;10.290;2022-08-04T00:04:45;93915.47;;;16.29;75.47
50093;BME280;35974;47.752;10.290;2022-08-04T00:07:34;93889.31;;;16.10;75.33
50093;BME280;35974;47.752;10.290;2022-08-04T00:10:09;93889.78;;;16.07;76.24
50093;BME280;35974;47.752;10.290;2022-08-04T00:12:40;93895.13;;;16.13;75.88
50093;BME280;35974;47.752;10.290;2022-08-04T00:15:10;93894.59;;;16.10;75.78
50093;BME280;35974;47.752;10.290;2022-08-04T00:17:51;93913.91;;;16.28;75.28
50093;BME280;35974;47.752;10.290;2022-08-04T00:20:20;93896.66;;;16.08;75.69
50093;BME280;35974;47.752;10.290;2022-08-04T00:22:47;93898.72;;;16.06;75.53
50093;BME280;35974;47.752;10.290;2022-08-04T00:25:14;93912.59;;;16.14;75.26
50093;BME280;35974;47.752;10.290;2022-08-04T00:27:42;93907.00;;;15.98;75.26
50093;BME280;35974;47.752;10.290;2022-08-04T00:30:09;93897.41;;;15.92;75.29
50093;BME280;35974;47.752;10.290;2022-08-04T00:32:42;93904.94;;;16.00;74.84
50093;BME280;35974;47.752;10.290;2022-08-04T00:35:12;93888.84;;;15.85;75.20
50093;BME280;35974;47.752;10.290;2022-08-04T00:37:39;93920.78;;;16.00;74.96
50093;BME280;35974;47.752;10.290;2022-08-04T00:42:49;93920.78;;;16.00;75.40
50093;BME280;35974;47.752;10.290;2022-08-04T01:00:25;93883.72;;;15.66;76.09
50093;BME280;35974;47.752;10.290;2022-08-04T01:06:29;93921.38;;;15.90;75.64
50093;BME280;35974;47.752;10.290;2022-08-04T01:12:02;93917.22;;;15.78;76.07
50093;BME280;35974;47.752;10.290;2022-08-04T01:17:58;93894.53;;;15.53;76.43
50093;BME280;35974;47.752;10.290;2022-08-04T01:20:47;93895.94;;;15.44;77.12
50093;BME280;35974;47.752;10.290;2022-08-04T01:29:14;93916.75;;;15.57;77.35
50093;BME280;35974;47.752;10.290;2022-08-04T01:34:15;93901.41;;;15.54;76.34
50093;BME280;35974;47.752;10.290;2022-08-04T01:39:42;93877.84;;;15.24;77.04
50093;BME280;35974;47.752;10.290;2022-08-04T01:42:10;93911.41;;;15.52;77.33
50093;BME280;35974;47.752;10.290;2022-08-04T01:44:49;93876.16;;;15.17;77.90
50093;BME280;35974;47.752;10.290;2022-08-04T01:47:19;93903.63;;;15.33;77.92
50093;BME280;35974;47.752;10.290;2022-08-04T01:49:48;93915.41;;;15.43;78.03
50093;BME280;35974;47.752;10.290;2022-08-04T01:52:17;93906.94;;;15.41;77.95
50093;BME280;35974;47.752;10.290;2022-08-04T01:54:45;93883.34;;;15.22;77.72
50093;BME280;35974;47.752;10.290;2022-08-04T01:57:14;93872.59;;;15.12;77.76
50093;BME280;35974;47.752;10.290;2022-08-04T02:00:03;93913.59;;;15.31;77.85
50093;BME280;35974;47.752;10.290;2022-08-04T02:02:32;93905.25;;;15.23;77.54
50093;BME280;35974;47.752;10.290;2022-08-04T02:04:58;93914.53;;;15.25;77.72
50093;BME280;35974;47.752;10.290;2022-08-04T02:07:49;93893.22;;;15.15;77.92
50093;BME280;35974;47.752;10.290;2022-08-04T02:16:03;93924.78;;;15.62;77.44
50093;BME280;35974;47.752;10.290;2022-08-04T02:18:37;93888.16;;;15.25;78.40
50093;BME280;35974;47.752;10.290;2022-08-04T02:21:11;93881.88;;;15.02;78.59
50093;BME280;35974;47.752;10.290;2022-08-04T02:23:41;93902.16;;;15.14;78.42
50093;BME280;35974;47.752;10.290;2022-08-04T02:26:16;93912.94;;;15.24;79.06
50093;BME280;35974;47.752;10.290;2022-08-04T02:29:00;93915.69;;;15.29;78.67
50093;BME280;35974;47.752;10.290;2022-08-04T02:31:40;93914.84;;;15.29;78.98
50093;BME280;35974;47.752;10.290;2022-08-04T02:34:24;93903.75;;;15.38;77.45
50093;BME280;35974;47.752;10.290;2022-08-04T02:36:54;93911.78;;;15.20;78.34
50093;BME280;35974;47.752;10.290;2022-08-04T02:39:22;93915.88;;;15.40;77.54
50093;BME280;35974;47.752;10.290;2022-08-04T02:41:49;93889.34;;;15.06;78.00
50093;BME280;35974;47.752;10.290;2022-08-04T02:44:22;93903.09;;;15.08;78.87
50093;BME280;35974;47.752;10.290;2022-08-04T02:46:51;93906.44;;;15.03;79.01
50093;BME280;35974;47.752;10.290;2022-08-04T02:49:20;93886.38;;;14.90;79.34
50093;BME280;35974;47.752;10.290;2022-08-04T02:51:52;93909.84;;;15.04;78.65
50093;BME280;35974;47.752;10.290;2022-08-04T02:54:39;93903.69;;;14.98;78.80
50093;BME280;35974;47.752;10.290;2022-08-04T02:57:08;93878.72;;;14.77;79.70
50093;BME280;35974;47.752;10.290;2022-08-04T03:02:31;93901.38;;;14.90;78.89
50093;BME280;35974;47.752;10.290;2022-08-04T03:05:04;93899.91;;;14.82;79.54
50093;BME280;35974;47.752;10.290;2022-08-04T03:21:59;93882.47;;;14.57;79.01
50093;BME280;35974;47.752;10.290;2022-08-04T03:24:49;93872.38;;;14.54;79.34
50093;BME280;35974;47.752;10.290;2022-08-04T03:28:00;93879.16;;;14.62;79.00
50093;BME280;35974;47.752;10.290;2022-08-04T03:30:50;93902.88;;;14.74;79.19
50093;BME280;35974;47.752;10.290;2022-08-04T03:33:49;93900.09;;;14.69;79.25
50093;BME280;35974;47.752;10.290;2022-08-04T03:39:46;93892.16;;;14.57;79.42
50093;BME280;35974;47.752;10.290;2022-08-04T03:53:02;93907.28;;;14.50;80.11
50093;BME280;35974;47.752;10.290;2022-08-04T03:55:43;93908.88;;;14.51;80.08
50093;BME280;35974;47.752;10.290;2022-08-04T03:58:42;93896.41;;;14.46;80.39
50093;BME280;35974;47.752;10.290;2022-08-04T04:09:31;93873.03;;;14.38;80.88
50093;BME280;35974;47.752;10.290;2022-08-04T04:18:37;93901.50;;;14.59;81.46
50093;BME280;35974;47.752;10.290;2022-08-04T04:26:42;93901.72;;;14.70;80.62
50093;BME280;35974;47.752;10.290;2022-08-04T04:35:21;93899.53;;;14.78;80.23
50093;BME280;35974;47.752;10.290;2022-08-04T04:38:27;93897.38;;;14.87;80.52
50093;BME280;35974;47.752;10.290;2022-08-04T04:41:07;93897.38;;;14.87;80.95
50093;BME280;35974;47.752;10.290;2022-08-04T04:49:32;93897.84;;;15.08;81.54
50093;BME280;35974;47.752;10.290;2022-08-04T04:52:08;93907.22;;;15.27;81.84
50093;BME280;35974;47.752;10.290;2022-08-04T04:54:43;93889.09;;;15.19;81.41
50093;BME280;35974;47.752;10.290;2022-08-04T04:57:17;93908.66;;;15.47;81.88
50093;BME280;35974;47.752;10.290;2022-08-04T05:00:08;93908.16;;;15.50;82.05
50093;BME280;35974;47.752;10.290;2022-08-04T05:02:39;93918.47;;;15.63;82.13
50093;BME280;35974;47.752;10.290;2022-08-04T05:07:54;93911.44;;;15.81;81.91
50093;BME280;35974;47.752;10.290;2022-08-04T05:16:26;93918.25;;;16.05;82.02
50093;BME280;35974;47.752;10.290;2022-08-04T05:21:46;93906.25;;;16.15;81.14
50093;BME280;35974;47.752;10.290;2022-08-04T05:24:17;93890.41;;;16.15;81.68
50093;BME280;35974;47.752;10.290;2022-08-04T05:26:47;93894.91;;;16.31;81.38
50093;BME280;35974;47.752;10.290;2022-08-04T05:29:27;93871.53;;;16.23;81.73
50093;BME280;35974;47.752;10.290;2022-08-04T05:31:58;93909.75;;;16.66;81.52
50093;BME280;35974;47.752;10.290;2022-08-04T05:34:29;93899.09;;;16.78;80.95
50093;BME280;35974;47.752;10.290;2022-08-04T05:36:59;93885.16;;;16.82;80.78
50093;BME280;35974;47.752;10.290;2022-08-04T05:39:37;93892.47;;;17.09;79.62
50093;BME280;35974;47.752;10.290;2022-08-04T05:42:04;93908.56;;;17.30;79.41
50093;BME280;35974;47.752;10.290;2022-08-04T05:44:33;93907.06;;;17.34;79.15
50093;BME280;35974;47.752;10.290;2022-08-04T05:47:00;93917.28;;;17.47;78.83
50093;BME280;35974;47.752;10.290;2022-08-04T05:49:29;93892.28;;;17.38;78.54
50093;BME280;35974;47.752;10.290;2022-08-04T05:52:00;93877.53;;;17.42;78.16
50093;BME280;35974;47.752;10.290;2022-08-04T05:54:29;93890.94;;;17.57;77.84
50093;BME280;35974;47.752;10.290;2022-08-04T05:56:57;93888.91;;;17.65;77.98
50093;BME280;35974;47.752;10.290;2022-08-04T05:59:25;93894.66;;;17.84;77.36
50093;BME280;35974;47.752;10.290;2022-08-04T06:01:53;93911.53;;;18.00;77.44
50093;BME280;35974;47.752;10.290;2022-08-04T06:04:27;93906.44;;;18.15;77.17
50093;BME280;35974;47.752;10.290;2022-08-04T06:06:56;93901.13;;;18.15;77.20
50093;BME280;35974;47.752;10.290;2022-08-04T06:09:22;93899.59;;;18.24;77.01
50093;BME280;35974;47.752;10.290;2022-08-04T06:11:50;93867.00;;;18.19;76.68
50093;BME280;35974;47.752;10.290;2022-08-04T06:14:56;93896.75;;;18.63;75.87
50093;BME280;35974;47.752;10.290;2022-08-04T06:17:30;93881.91;;;18.57;75.77
50093;BME280;35974;47.752;10.290;2022-08-04T06:20:18;93871.94;;;18.75;74.87
50093;BME280;35974;47.752;10.290;2022-08-04T06:22:52;93902.97;;;19.12;74.39
50093;BME280;35974;47.752;10.290;2022-08-04T06:25:23;93872.47;;;19.09;74.19
50093;BME280;35974;47.752;10.290;2022-08-04T06:27:51;93873.81;;;19.17;73.85
50093;BME280;35974;47.752;10.290;2022-08-04T06:30:18;93888.34;;;19.52;72.53
50093;BME280;35974;47.752;10.290;2022-08-04T06:32:51;93876.69;;;19.58;71.84
50093;BME280;35974;47.752;10.290;2022-08-04T06:35:34;93881.78;;;19.70;71.58
50093;BME280;35974;47.752;10.290;2022-08-04T06:38:10;93895.19;;;20.06;70.78
50093;BME280;35974;47.752;10.290;2022-08-04T06:40:39;93886.16;;;20.07;70.13
50093;BME280;35974;47.752;10.290;2022-08-04T06:43:07;93888.56;;;20.29;69.77
50093;BME280;35974;47.752;10.290;2022-08-04T06:45:37;93869.44;;;20.32;68.57
50093;BME280;35974;47.752;10.290;2022-08-04T06:48:06;93892.09;;;20.65;67.54
50093;BME280;35974;47.752;10.290;2022-08-04T06:50:40;93900.31;;;20.95;66.41
50093;BME280;35974;47.752;10.290;2022-08-04T06:53:34;93881.19;;;20.93;66.08
50093;BME280;35974;47.752;10.290;2022-08-04T06:56:01;93894.16;;;21.15;66.04
50093;BME280;35974;47.752;10.290;2022-08-04T06:58:29;93882.75;;;21.14;65.95
50093;BME280;35974;47.752;10.290;2022-08-04T07:00:58;93868.91;;;21.12;66.56
50093;BME280;35974;47.752;10.290;2022-08-04T07:03:28;93905.56;;;21.36;66.55
50093;BME280;35974;47.752;10.290;2022-08-04T07:05:56;93873.41;;;21.27;66.05
50093;BME280;35974;47.752;10.290;2022-08-04T07:08:25;93868.28;;;21.46;64.87
50093;BME280;35974;47.752;10.290;2022-08-04T07:10:52;93898.31;;;21.72;64.79
50093;BME280;35974;47.752;10.290;2022-08-04T07:13:26;93894.69;;;22.03;62.33
50093;BME280;35974;47.752;10.290;2022-08-04T07:15:53;93892.56;;;22.05;62.95
50093;BME280;35974;47.752;10.290;2022-08-04T07:18:21;93897.06;;;22.09;63.28
50093;BME280;35974;47.752;10.290;2022-08-04T07:20:47;93885.25;;;22.26;61.82
50093;BME280;35974;47.752;10.290;2022-08-04T07:23:16;93898.25;;;22.38;61.39
50093;BME280;35974;47.752;10.290;2022-08-04T07:25:54;93881.63;;;22.51;61.03
50093;BME280;35974;47.752;10.290;2022-08-04T07:28:45;93885.22;;;22.71;60.67
50093;BME280;35974;47.752;10.290;2022-08-04T07:31:14;93894.28;;;22.75;60.64
50093;BME280;35974;47.752;10.290;2022-08-04T07:34:00;93867.53;;;22.80;60.12
50093;BME280;35974;47.752;10.290;2022-08-04T07:36:51;93901.44;;;23.09;58.69
50093;BME280;35974;47.752;10.290;2022-08-04T07:39:23;93891.63;;;23.33;58.45
50093;BME280;35974;47.752;10.290;2022-08-04T07:41:54;93910.03;;;23.59;58.26
50093;BME280;35974;47.752;10.290;2022-08-04T07:44:21;93891.84;;;23.61;57.67
50093;BME280;35974;47.752;10.290;2022-08-04T07:46:47;93899.13;;;23.80;57.08
50093;BME280;35974;47.752;10.290;2022-08-04T07:49:14;93886.38;;;23.96;57.01
50093;BME280;35974;47.752;10.290;2022-08-04T07:52:00;93921.41;;;23.94;57.59
50093;BME280;35974;47.752;10.290;2022-08-04T07:54:27;93892.78;;;24.38;54.45
50093;BME280;35974;47.752;10.290;2022-08-04T07:56:56;93878.16;;;24.49;54.33
50093;BME280;35974;47.752;10.290;2022-08-04T07:59:23;93877.66;;;24.66;53.85
50093;BME280;35974;47.752;10.290;2022-08-04T08:01:50;93882.88;;;24.76;53.93
50093;BME280;35974;47.752;10.290;2022-08-04T08:04:17;93899.16;;;24.94;53.15
50093;BME280;35974;47.752;10.290;2022-08-04T08:06:44;93877.38;;;25.00;53.07
50093;BME280;35974;47.752;10.290;2022-08-04T08:09:17;93890.69;;;25.19;53.53
50093;BME280;35974;47.752;10.290;2022-08-04T08:11:45;93885.19;;;25.30;53.26
50093;BME280;35974;47.752;10.290;2022-08-04T08:14:35;93891.16;;;25.54;52.05
50093;BME280;35974;47.752;10.290;2022-08-04T08:17:02;93885.81;;;25.54;51.41
50093;BME280;35974;47.752;10.290;2022-08-04T08:19:32;93879.28;;;25.61;52.33
50093;BME280;35974;47.752;10.290;2022-08-04T08:22:00;93892.94;;;25.73;51.79
50093;BME280;35974;47.752;10.290;2022-08-04T08:24:29;93862.09;;;25.62;51.00
50093;BME280;35974;47.752;10.290;2022-08-04T08:26:57;93892.53;;;25.93;49.92
50093;BME280;35974;47.752;10.290;2022-08-04T08:29:24;93874.59;;;25.80;50.05
50093;BME280;35974;47.752;10.290;2022-08-04T08:31:51;93871.69;;;25.90;50.20
50093;BME280;35974;47.752;10.290;2022-08-04T08:34:26;93890.34;;;26.23;48.05
50093;BME280;35974;47.752;10.290;2022-08-04T08:37:02;93875.06;;;26.10;48.63
50093;BME280;35974;47.752;10.290;2022-08-04T08:39:57;93889.50;;;26.37;48.61
50093;BME280;35974;47.752;10.290;2022-08-04T09:04:34;93883.81;;;27.20;42.53
50093;BME280;35974;47.752;10.290;2022-08-04T09:15:11;93886.81;;;27.50;43.07
50093;BME280;35974;47.752;10.290;2022-08-04T09:17:47;93883.69;;;27.65;41.83
50093;BME280;35974;47.752;10.290;2022-08-04T09:20:18;93893.91;;;27.86;42.20
50093;BME280;35974;47.752;10.290;2022-08-04T09:28:26;93894.63;;;28.18;43.33
50093;BME280;35974;47.752;10.290;2022-08-04T09:31:17;93885.31;;;28.24;42.63
50093;BME280;35974;47.752;10.290;2022-08-04T09:33:59;93877.88;;;28.21;42.91
50093;BME280;35974;47.752;10.290;2022-08-04T09:36:40;93899.09;;;28.48;43.01
50093;BME280;35974;47.752;10.290;2022-08-04T09:39:21;93885.94;;;28.29;42.82
50093;BME280;35974;47.752;10.290;2022-08-04T09:42:00;93895.97;;;28.64;41.23
50093;BME280;35974;47.752;10.290;2022-08-04T09:44:46;93904.34;;;28.80;42.71
50093;BME280;35974;47.752;10.290;2022-08-04T09:47:31;93902.59;;;28.75;42.62
50093;BME280;35974;47.752;10.290;2022-08-04T09:58:56;93880.72;;;29.20;42.02
50093;BME280;35974;47.752;10.290;2022-08-04T10:01:28;93885.06;;;29.51;41.73
50093;BME280;35974;47.752;10.290;2022-08-04T10:04:00;93893.84;;;29.78;40.33
50093;BME280;35974;47.752;10.290;2022-08-04T10:09:45;93870.78;;;30.19;38.04
50093;BME280;35974;47.752;10.290;2022-08-04T10:14:57;93889.63;;;30.91;38.03
50093;BME280;35974;47.752;10.290;2022-08-04T10:17:59;93884.88;;;30.88;35.59
50093;BME280;35974;47.752;10.290;2022-08-04T10:21:00;93888.16;;;31.15;36.26
50093;BME280;35974;47.752;10.290;2022-08-04T10:26:54;93876.69;;;31.18;36.68
50093;BME280;35974;47.752;10.290;2022-08-04T10:29:28;93866.16;;;30.83;34.20
50093;BME280;35974;47.752;10.290;2022-08-04T10:32:19;93865.13;;;30.96;36.04
50093;BME280;35974;47.752;10.290;2022-08-04T10:35:12;93883.31;;;31.54;34.51
50093;BME280;35974;47.752;10.290;2022-08-04T10:37:52;93873.69;;;31.44;35.78
50093;BME280;35974;47.752;10.290;2022-08-04T10:40:47;93867.47;;;31.31;38.90
50093;BME280;35974;47.752;10.290;2022-08-04T10:43:40;93880.09;;;31.39;35.92
50093;BME280;35974;47.752;10.290;2022-08-04T10:46:26;93862.13;;;31.23;34.58
50093;BME280;35974;47.752;10.290;2022-08-04T10:48:57;93883.47;;;31.36;36.77
50093;BME280;35974;47.752;10.290;2022-08-04T10:51:35;93885.47;;;31.27;34.70
50093;BME280;35974;47.752;10.290;2022-08-04T10:54:40;93872.09;;;30.97;35.44
50093;BME280;35974;47.752;10.290;2022-08-04T10:57:24;93858.44;;;31.27;37.16
50093;BME280;35974;47.752;10.290;2022-08-04T10:59:55;93883.78;;;31.68;33.96
50093;BME280;35974;47.752;10.290;2022-08-04T11:02:54;93864.31;;;31.42;33.60
50093;BME280;35974;47.752;10.290;2022-08-04T11:05:26;93874.25;;;31.37;32.89
50093;BME280;35974;47.752;10.290;2022-08-04T11:08:03;93875.38;;;31.49;33.09
50093;BME280;35974;47.752;10.290;2022-08-04T11:11:02;93870.69;;;31.70;31.20
50093;BME280;35974;47.752;10.290;2022-08-04T11:13:37;93875.09;;;31.63;32.75
50093;BME280;35974;47.752;10.290;2022-08-04T11:16:16;93867.75;;;31.63;33.42
50093;BME280;35974;47.752;10.290;2022-08-04T11:18:57;93865.91;;;31.43;34.96
50093;BME280;35974;47.752;10.290;2022-08-04T11:21:36;93857.13;;;31.46;32.27
50093;BME280;35974;47.752;10.290;2022-08-04T11:24:19;93863.03;;;31.72;33.71
50093;BME280;35974;47.752;10.290;2022-08-04T11:27:04;93845.00;;;31.64;33.26
50093;BME280;35974;47.752;10.290;2022-08-04T11:32:25;93830.53;;;31.48;35.02
50093;BME280;35974;47.752;10.290;2022-08-04T11:35:01;93875.09;;;31.63;32.75
50093;BME280;35974;47.752;10.290;2022-08-04T11:37:44;93850.19;;;31.11;31.82
50093;BME280;35974;47.752;10.290;2022-08-04T11:40:29;93828.34;;;30.83;32.29
50093;BME280;35974;47.752;10.290;2022-08-04T11:43:05;93849.66;;;31.18;33.35
50093;BME280;35974;47.752;10.290;2022-08-04T11:45:37;93871.53;;;31.50;33.41
50093;BME280;35974;47.752;10.290;2022-08-04T11:48:10;93856.19;;;31.29;30.61
50093;BME280;35974;47.752;10.290;2022-08-04T11:50:49;93848.78;;;31.26;30.47
50093;BME280;35974;47.752;10.290;2022-08-04T11:53:37;93825.13;;;31.48;30.94
50093;BME280;35974;47.752;10.290;2022-08-04T11:56:09;93845.38;;;31.29;31.13
50093;BME280;35974;47.752;10.290;2022-08-04T11:58:40;93838.66;;;31.60;28.60
50093;BME280;35974;47.752;10.290;2022-08-04T12:01:27;93862.13;;;31.68;29.05
50093;BME280;35974;47.752;10.290;2022-08-04T12:04:27;93865.50;;;31.53;30.10
50093;BME280;35974;47.752;10.290;2022-08-04T12:10:42;93857.41;;;31.90;30.73
50093;BME280;35974;47.752;10.290;2022-08-04T12:13:23;93858.03;;;31.99;30.13
50093;BME280;35974;47.752;10.290;2022-08-04T12:21:48;93844.50;;;31.99;28.09
50093;BME280;35974;47.752;10.290;2022-08-04T12:24:27;93844.31;;;32.17;28.90
50093;BME280;35974;47.752;10.290;2022-08-04T12:26:59;93846.53;;;32.02;29.41
50093;BME280;35974;47.752;10.290;2022-08-04T12:29:50;93853.09;;;32.26;28.22
50093;BME280;35974;47.752;10.290;2022-08-04T12:32:42;93846.91;;;32.54;31.19
50093;BME280;35974;47.752;10.290;2022-08-04T12:35:44;93829.88;;;32.13;28.15
50093;BME280;35974;47.752;10.290;2022-08-04T12:38:32;93827.41;;;31.70;28.16
50093;BME280;35974;47.752;10.290;2022-08-04T12:41:00;93802.47;;;31.89;27.00
50093;BME280;35974;47.752;10.290;2022-08-04T12:43:42;93822.56;;;31.88;27.64
50093;BME280;35974;47.752;10.290;2022-08-04T12:46:19;93828.75;;;32.14;27.85
50093;BME280;35974;47.752;10.290;2022-08-04T12:48:49;93838.91;;;31.92;25.88
50093;BME280;35974;47.752;10.290;2022-08-04T12:51:17;93824.72;;;32.07;25.10
50093;BME280;35974;47.752;10.290;2022-08-04T12:54:06;93838.78;;;32.25;26.84
50093;BME280;35974;47.752;10.290;2022-08-04T12:56:34;93822.38;;;32.34;25.92
50093;BME280;35974;47.752;10.290;2022-08-04T12:59:06;93814.69;;;32.36;24.89
50093;BME280;35974;47.752;10.290;2022-08-04T13:01:50;93821.09;;;32.16;27.34
50093;BME280;35974;47.752;10.290;2022-08-04T13:04:37;93820.59;;;32.26;27.59
50093;BME280;35974;47.752;10.290;2022-08-04T13:07:17;93837.44;;;32.47;27.06
50093;BME280;35974;47.752;10.290;2022-08-04T13:09:45;93802.09;;;32.28;25.64
50093;BME280;35974;47.752;10.290;2022-08-04T13:12:14;93808.41;;;32.32;26.11
50093;BME280;35974;47.752;10.290;2022-08-04T13:14:42;93828.69;;;32.38;24.13
50093;BME280;35974;47.752;10.290;2022-08-04T13:17:10;93827.13;;;32.37;26.53
50093;BME280;35974;47.752;10.290;2022-08-04T13:19:38;93804.09;;;32.43;26.26
50093;BME280;35974;47.752;10.290;2022-08-04T13:22:11;93827.03;;;32.62;24.45
50093;BME280;35974;47.752;10.290;2022-08-04T13:24:41;93792.63;;;32.22;26.09
50093;BME280;35974;47.752;10.290;2022-08-04T13:27:29;93801.22;;;32.24;25.94
50093;BME280;35974;47.752;10.290;2022-08-04T13:30:29;93821.78;;;32.41;25.16
50093;BME280;35974;47.752;10.290;2022-08-04T13:32:59;93785.88;;;32.03;23.52
50093;BME280;35974;47.752;10.290;2022-08-04T13:35:45;93818.16;;;32.49;27.08
50093;BME280;35974;47.752;10.290;2022-08-04T13:38:23;93803.78;;;32.61;25.14
50093;BME280;35974;47.752;10.290;2022-08-04T13:40:51;93809.00;;;32.54;25.82
50093;BME280;35974;47.752;10.290;2022-08-04T13:43:24;93783.88;;;32.41;25.70
50093;BME280;35974;47.752;10.290;2022-08-04T13:46:31;93805.78;;;32.76;25.34
50093;BME280;35974;47.752;10.290;2022-08-04T13:49:02;93775.03;;;32.84;26.00
50093;BME280;35974;47.752;10.290;2022-08-04T13:52:04;93779.19;;;32.66;23.98
50093;BME280;35974;47.752;10.290;2022-08-04T13:54:43;93773.53;;;32.71;24.29
50093;BME280;35974;47.752;10.290;2022-08-04T13:57:29;93773.78;;;32.66;25.17
50093;BME280;35974;47.752;10.290;2022-08-04T14:00:00;93768.94;;;33.03;25.52
50093;BME280;35974;47.752;10.290;2022-08-04T14:02:45;93791.19;;;33.41;28.41
50093;BME280;35974;47.752;10.290;2022-08-04T14:05:28;93797.84;;;33.28;23.89
50093;BME280;35974;47.752;10.290;2022-08-04T14:10:32;93797.00;;;32.67;25.63
50093;BME280;35974;47.752;10.290;2022-08-04T14:12:59;93774.88;;;33.09;26.14
50093;BME280;35974;47.752;10.290;2022-08-04T14:18:25;93785.69;;;32.77;25.78
50093;BME280;35974;47.752;10.290;2022-08-04T14:23:26;93774.63;;;32.98;27.80
50093;BME280;35974;47.752;10.290;2022-08-04T14:25:58;93778.13;;;32.99;27.83
50093;BME280;35974;47.752;10.290;2022-08-04T14:28:26;93781.09;;;33.10;25.51
50093;BME280;35974;47.752;10.290;2022-08-04T14:31:20;93749.41;;;32.54;25.41
50093;BME280;35974;47.752;10.290;2022-08-04T14:33:49;93757.06;;;33.08;26.04
50093;BME280;35974;47.752;10.290;2022-08-04T14:36:40;93762.31;;;33.17;25.66
50093;BME280;35974;47.752;10.290;2022-08-04T14:39:41;93772.63;;;33.43;25.92
50093;BME280;35974;47.752;10.290;2022-08-04T14:42:45;93772.81;;;33.50;26.19
50093;BME280;35974;47.752;10.290;2022-08-04T14:45:39;93733.28;;;33.17;26.00
50093;BME280;35974;47.752;10.290;2022-08-04T14:48:20;93751.78;;;33.79;25.53
50093;BME280;35974;47.752;10.290;2022-08-04T14:50:48;93761.06;;;33.78;26.38
50093;BME280;35974;47.752;10.290;2022-08-04T14:55:47;93765.47;;;33.35;26.02
50093;BME280;35974;47.752;10.290;2022-08-04T14:58:20;93764.91;;;33.77;26.44
50093;BME280;35974;47.752;10.290;2022-08-04T15:01:05;93748.47;;;33.70;25.97
50093;BME280;35974;47.752;10.290;2022-08-04T15:03:43;93751.41;;;33.65;24.71
50093;BME280;35974;47.752;10.290;2022-08-04T15:06:24;93743.56;;;33.60;25.50
50093;BME280;35974;47.752;10.290;2022-08-04T15:08:53;93758.78;;;33.80;26.28
50093;BME280;35974;47.752;10.290;2022-08-04T15:11:21;93738.56;;;33.62;27.16
50093;BME280;35974;47.752;10.290;2022-08-04T15:13:53;93742.09;;;33.46;24.28
50093;BME280;35974;47.752;10.290;2022-08-04T15:16:21;93754.06;;;33.13;23.97
50093;BME280;35974;47.752;10.290;2022-08-04T15:18:59;93750.84;;;33.24;25.08
50093;BME280;35974;47.752;10.290;2022-08-04T15:21:27;93741.31;;;33.30;24.75
50093;BME280;35974;47.752;10.290;2022-08-04T15:23:57;93740.22;;;32.87;24.46
50093;BME280;35974;47.752;10.290;2022-08-04T15:26:29;93744.75;;;33.27;25.15
50093;BME280;35974;47.752;10.290;2022-08-04T15:29:22;93743.47;;;33.72;24.58
50093;BME280;35974;47.752;10.290;2022-08-04T15:31:51;93743.22;;;33.97;22.42
50093;BME280;35974;47.752;10.290;2022-08-04T15:35:00;93738.13;;;33.60;23.78
50093;BME280;35974;47.752;10.290;2022-08-04T15:37:31;93711.13;;;33.15;22.07
50093;BME280;35974;47.752;10.290;2022-08-04T15:40:12;93718.94;;;33.33;21.25
50093;BME280;35974;47.752;10.290;2022-08-04T15:42:48;93730.88;;;33.80;22.51
50093;BME280;35974;47.752;10.290;2022-08-04T15:45:22;93717.78;;;33.85;21.13
50093;BME280;35974;47.752;10.290;2022-08-04T15:53:20;93709.38;;;34.10;21.26
50093;BME280;35974;47.752;10.290;2022-08-04T15:55:48;93717.69;;;34.17;21.56
50093;BME280;35974;47.752;10.290;2022-08-04T15:58:18;93706.13;;;33.49;20.05
50093;BME280;35974;47.752;10.290;2022-08-04T16:16:30;93718.13;;;34.39;19.97
50093;BME280;35974;47.752;10.290;2022-08-04T16:19:08;93710.53;;;34.48;19.55
50093;BME280;35974;47.752;10.290;2022-08-04T16:24:34;93715.38;;;34.19;19.75
50093;BME280;35974;47.752;10.290;2022-08-04T16:27:03;93719.09;;;34.11;21.03
50093;BME280;35974;47.752;10.290;2022-08-04T16:29:39;93715.69;;;34.14;20.64
50093;BME280;35974;47.752;10.290;2022-08-04T16:34:56;93682.50;;;33.85;20.41
50093;BME280;35974;47.752;10.290;2022-08-04T16:37:33;93690.53;;;33.78;21.78
50093;BME280;35974;47.752;10.290;2022-08-04T16:40:24;93708.72;;;33.62;23.17
50093;BME280;35974;47.752;10.290;2022-08-04T16:43:08;93686.78;;;33.51;22.50
50093;BME280;35974;47.752;10.290;2022-08-04T16:46:01;93704.72;;;33.55;22.30
50093;BME280;35974;47.752;10.290;2022-08-04T16:48:34;93693.13;;;33.39;21.37
50093;BME280;35974;47.752;10.290;2022-08-04T16:51:06;93681.75;;;33.69;22.10
50093;BME280;35974;47.752;10.290;2022-08-04T16:53:45;93702.09;;;33.95;22.49
50093;BME280;35974;47.752;10.290;2022-08-04T16:56:28;93697.81;;;33.93;23.73
50093;BME280;35974;47.752;10.290;2022-08-04T16:58:55;93693.66;;;33.80;25.16
50093;BME280;35974;47.752;10.290;2022-08-04T17:01:22;93701.56;;;33.89;25.57
50093;BME280;35974;47.752;10.290;2022-08-04T17:04:00;93705.53;;;33.91;24.34
50093;BME280;35974;47.752;10.290;2022-08-04T17:06:35;93678.63;;;33.67;25.83
50093;BME280;35974;47.752;10.290;2022-08-04T17:09:10;93699.66;;;33.70;25.63
50093;BME280;35974;47.752;10.290;2022-08-04T17:11:37;93675.00;;;33.43;24.10
50093;BME280;35974;47.752;10.290;2022-08-04T17:14:04;93694.97;;;33.35;26.30
50093;BME280;35974;47.752;10.290;2022-08-04T17:16:34;93697.72;;;33.54;26.36
50093;BME280;35974;47.752;10.290;2022-08-04T17:19:01;93683.59;;;33.13;28.14
50093;BME280;35974;47.752;10.290;2022-08-04T17:21:30;93704.41;;;32.77;29.04